Terminal Aerodrome Forecast
Issued by NWS Charleston, WV

Current Version | Previous Version | Graphics & Text | Print | Product List | Glossary On
Versions: 1 2 3 4 5 6 7 8 9 10 11 12 13 14 15 16 17 18 19 20 21 22
000
FTUS41 KRLX 161400 AAA
TAFEKN
TAF AMD
KEKN 161406Z 1614/1712 32003KT P6SM OVC017
     FM161800 33005KT P6SM BKN035
     FM162100 32004KT P6SM SCT040
     FM170200 00000KT 4SM BR SCT025
     FM170400 00000KT 1SM BR SCT001 SCT015
     FM170600 00000KT 1/2SM FG VV001=

USA.gov is the U.S. government's official web portal to all federal, state and local government web resources and services.